Time;durP1;ratioP1;P1;durP2;ratioP2;P2;SDS_P1;SDS_P2;PMS_P1;PMS_P2;Temp;Humidity;BMP_temperature;BMP_pressure;BME280_temperature;BME280_humidity;BME280_pressure;Samples;Min_cycle;Max_cycle;Signal;HPM_P1;HPM_P2
2021/12/03 00:00:20;;;;;;;1.48;0.80;;;;;;;1.31;94.72;98190.56;4896655;29;20111;-70
2021/12/03 00:02:45;;;;;;;2.92;1.50;;;;;;;1.15;95.06;98197.19;4896617;29;20056;-69
2021/12/03 00:05:10;;;;;;;0.85;0.85;;;;;;;1.06;94.86;98202.19;4896696;29;20068;-69
2021/12/03 00:07:38;;;;;;;1.27;1.27;;;;;;;0.89;95.43;98203.72;4888717;29;20109;-69
2021/12/03 00:10:06;;;;;;;0.90;0.90;;;;;;;0.89;95.56;98209.69;4896495;29;20028;-69
2021/12/03 00:12:32;;;;;;;1.63;1.52;;;;;;;0.76;96.51;98213.78;4896683;29;20039;-69
2021/12/03 00:14:57;;;;;;;2.55;1.23;;;;;;;0.67;96.35;98216.22;4896636;29;20579;-70
2021/12/03 00:17:22;;;;;;;5.45;2.38;;;;;;;0.75;95.82;98227.38;4896388;29;20032;-69
2021/12/03 00:19:48;;;;;;;0.70;0.70;;;;;;;0.65;95.77;98245.09;4896436;29;20070;-69
2021/12/03 00:22:13;;;;;;;3.83;0.90;;;;;;;0.59;95.71;98245.88;4896537;29;20174;-69
2021/12/03 00:24:39;;;;;;;0.80;0.80;;;;;;;0.67;95.46;98248.50;4899288;29;20035;-70
2021/12/03 00:27:05;;;;;;;0.90;0.90;;;;;;;0.55;96.31;98259.41;4899935;29;20179;-69
2021/12/03 00:29:30;;;;;;;0.80;0.80;;;;;;;0.51;95.67;98267.84;4900097;29;20024;-69
2021/12/03 00:31:56;;;;;;;0.65;0.65;;;;;;;0.55;95.73;98279.78;4899941;29;20048;-69
2021/12/03 00:34:21;;;;;;;0.80;0.80;;;;;;;0.48;95.66;98275.44;4900000;29;20422;-70
2021/12/03 00:36:46;;;;;;;1.10;1.10;;;;;;;0.42;96.09;98277.91;4897647;29;20500;-69
2021/12/03 00:39:12;;;;;;;1.17;1.17;;;;;;;0.50;95.96;98286.53;4894135;29;20028;-69
2021/12/03 00:41:45;;;;;;;0.98;0.98;;;;;;;0.40;96.37;98282.13;4930216;29;20036;-69
2021/12/03 00:44:11;;;;;;;1.05;1.05;;;;;;;0.53;95.61;98286.53;4899766;29;20037;-69
2021/12/03 00:46:36;;;;;;;0.88;0.88;;;;;;;0.47;96.60;98286.47;4899458;29;20047;-70
2021/12/03 00:49:02;;;;;;;1.50;1.42;;;;;;;0.39;96.25;98294.03;4899780;29;20394;-69
2021/12/03 00:51:27;;;;;;;0.88;0.88;;;;;;;0.59;95.96;98296.84;4899675;29;20478;-69
2021/12/03 00:53:53;;;;;;;0.73;0.73;;;;;;;0.50;95.32;98301.81;4899747;29;20036;-69
2021/12/03 00:56:19;;;;;;;0.70;0.70;;;;;;;0.46;96.25;98300.06;4899362;29;20029;-69
2021/12/03 00:58:44;;;;;;;0.60;0.60;;;;;;;0.55;96.58;98307.81;4899598;29;20036;-65
2021/12/03 05:17:11;;;;;;;1.05;1.05;;;;;;;0.10;97.11;98555.91;5068384;23;20045;-67
2021/12/03 05:19:36;;;;;;;0.85;0.85;;;;;;;0.02;97.72;98554.91;4899377;29;20031;-67
2021/12/03 05:22:02;;;;;;;1.35;1.35;;;;;;;0.22;98.53;98550.19;4899070;29;20040;-67
2021/12/03 05:24:27;;;;;;;1.45;1.45;;;;;;;0.14;98.21;98542.38;4899224;29;20124;-67
2021/12/03 05:26:52;;;;;;;1.95;1.73;;;;;;;0.04;98.04;98545.59;4885584;29;20036;-67
2021/12/03 05:29:18;;;;;;;1.77;1.65;;;;;;;0.07;98.26;98545.66;4880395;29;20029;-67
2021/12/03 05:31:43;;;;;;;2.20;1.95;;;;;;;0.11;97.26;98551.69;4880791;29;20024;-66
2021/12/03 05:34:12;;;;;;;1.00;1.00;;;;;;;-0.05;97.65;98558.13;4880272;29;20039;-66
2021/12/03 05:36:38;;;;;;;1.13;1.08;;;;;;;0.16;99.00;98556.03;4869238;29;20099;-66
2021/12/03 05:39:04;;;;;;;2.20;2.10;;;;;;;-0.03;98.60;98561.59;4910551;29;20111;-66
2021/12/03 05:41:29;;;;;;;0.90;0.90;;;;;;;-0.08;98.24;98565.72;4917937;29;20381;-66
2021/12/03 05:43:54;;;;;;;1.58;1.48;;;;;;;0.11;99.75;98565.28;4917683;29;20032;-66
2021/12/03 05:46:20;;;;;;;1.20;1.20;;;;;;;0.15;100.00;98568.75;4917409;29;20450;-66
2021/12/03 05:48:45;;;;;;;1.27;1.27;;;;;;;0.03;98.09;98571.91;4917622;29;20544;-66
2021/12/03 05:51:10;;;;;;;2.28;1.83;;;;;;;-0.01;97.35;98570.09;4917503;29;20034;-65
2021/12/03 05:53:36;;;;;;;2.55;1.63;;;;;;;-0.07;96.97;98572.53;4917295;29;20148;-66
2021/12/03 05:56:01;;;;;;;2.03;1.85;;;;;;;-0.04;96.88;98575.16;4917179;29;20032;-65
2021/12/03 05:58:27;;;;;;;2.58;1.48;;;;;;;0.11;97.71;98578.00;4917359;29;20080;-65
2021/12/03 06:00:52;;;;;;;1.60;1.50;;;;;;;0.31;99.12;98586.03;4917385;29;20059;-67
2021/12/03 06:03:18;;;;;;;1.85;1.60;;;;;;;0.22;98.64;98591.81;4917244;29;20024;-67
2021/12/03 06:05:43;;;;;;;1.33;1.33;;;;;;;0.52;99.77;98583.03;4916428;29;20031;-67
2021/12/03 06:08:09;;;;;;;1.80;1.67;;;;;;;0.40;97.22;98587.91;4909219;29;20317;-68
2021/12/03 06:10:35;;;;;;;1.55;1.45;;;;;;;0.48;96.05;98587.25;4917208;29;20474;-67
2021/12/03 06:13:01;;;;;;;1.67;1.60;;;;;;;0.57;95.46;98589.06;4917313;29;20438;-67
2021/12/03 06:15:27;;;;;;;0.98;0.98;;;;;;;0.58;95.23;98598.47;4916792;29;20051;-66
2021/12/03 06:17:53;;;;;;;7.78;2.20;;;;;;;0.59;95.03;98602.72;4917005;29;20465;-68
2021/12/03 06:20:19;;;;;;;1.55;1.50;;;;;;;0.43;95.88;98605.78;4916848;29;20050;-67
2021/12/03 06:22:46;;;;;;;2.55;2.35;;;;;;;0.51;96.86;98605.13;4917014;29;20473;-67
2021/12/03 06:25:13;;;;;;;2.50;1.80;;;;;;;0.27;96.76;98603.78;4916636;29;20083;-67
2021/12/03 06:27:40;;;;;;;3.25;3.00;;;;;;;0.58;96.85;98600.13;4916837;29;20378;-67
2021/12/03 06:30:09;;;;;;;2.65;2.42;;;;;;;0.56;95.33;98602.66;4915542;29;20091;-67
2021/12/03 06:32:35;;;;;;;2.50;2.35;;;;;;;0.56;95.19;98614.53;4916770;29;20027;-67
2021/12/03 06:35:00;;;;;;;1.77;1.70;;;;;;;0.50;95.02;98620.38;4916578;29;20024;-67
2021/12/03 06:37:26;;;;;;;1.30;1.20;;;;;;;0.50;97.22;98623.78;4909022;29;20031;-67
2021/12/03 06:39:51;;;;;;;2.80;2.38;;;;;;;0.38;97.57;98628.63;4914366;29;20028;-67
2021/12/03 06:42:17;;;;;;;2.15;2.05;;;;;;;0.27;97.07;98624.16;4916603;29;20039;-67
2021/12/03 06:44:42;;;;;;;1.45;1.38;;;;;;;0.34;97.93;98631.09;4916424;29;20393;-68
2021/12/03 06:47:08;;;;;;;1.00;1.00;;;;;;;0.41;98.51;98632.94;4916315;29;20119;-67
2021/12/03 06:49:34;;;;;;;0.70;0.70;;;;;;;0.57;99.41;98634.97;4916423;29;20095;-67
2021/12/03 06:52:07;;;;;;;1.95;1.83;;;;;;;0.43;98.23;98631.28;4916353;29;20057;-67
2021/12/03 06:54:34;;;;;;;1.13;1.13;;;;;;;0.44;98.19;98638.13;4916404;29;20055;-67
2021/12/03 06:57:02;;;;;;;0.63;0.63;;;;;;;0.55;97.93;98631.53;4916173;29;20397;-67
2021/12/03 06:59:28;;;;;;;1.33;1.33;;;;;;;0.40;96.34;98634.63;4916414;29;20032;-67
2021/12/03 07:01:54;;;;;;;2.13;1.92;;;;;;;0.51;96.50;98637.41;4916222;29;20393;-65
2021/12/03 07:04:21;;;;;;;2.10;2.00;;;;;;;0.48;94.83;98650.94;4916144;29;20504;-65
2021/12/03 07:06:46;;;;;;;1.20;1.20;;;;;;;0.53;95.02;98658.66;4913799;29;20500;-65
2021/12/03 07:09:12;;;;;;;3.35;2.22;;;;;;;0.61;97.36;98657.13;4910140;29;20111;-65
2021/12/03 07:11:38;;;;;;;1.50;1.40;;;;;;;0.59;97.06;98663.03;4916452;29;20374;-65
2021/12/03 07:14:04;;;;;;;1.05;1.05;;;;;;;0.67;96.39;98667.44;4916241;29;20031;-65
2021/12/03 07:16:30;;;;;;;1.15;1.15;;;;;;;0.61;92.89;98667.34;4915621;29;20470;-65
2021/12/03 07:18:55;;;;;;;1.70;1.48;;;;;;;0.68;96.05;98669.19;4916100;29;20111;-66
2021/12/03 07:21:21;;;;;;;1.45;1.38;;;;;;;0.59;95.56;98678.34;4915888;29;20028;-65
2021/12/03 07:23:49;;;;;;;2.10;1.92;;;;;;;0.90;94.04;98679.78;4915915;29;20370;-65
2021/12/03 07:26:15;;;;;;;1.80;1.70;;;;;;;0.77;90.61;98684.66;4915643;29;20028;-65
2021/12/03 07:28:41;;;;;;;3.10;1.83;;;;;;;0.71;91.71;98681.97;4916398;29;20034;-65
2021/12/03 07:31:06;;;;;;;1.65;1.55;;;;;;;0.64;96.08;98687.78;4915890;29;20500;-65
2021/12/03 07:33:32;;;;;;;2.55;1.95;;;;;;;0.85;90.67;98682.25;4915641;29;20115;-65
2021/12/03 07:35:58;;;;;;;2.53;2.35;;;;;;;0.86;89.40;98683.09;4915464;29;20026;-65
2021/12/03 07:38:23;;;;;;;1.85;1.75;;;;;;;1.12;89.67;98692.09;4907760;29;20031;-65
2021/12/03 07:40:49;;;;;;;2.72;0.80;;;;;;;1.09;87.70;98697.16;4915854;29;20068;-64
2021/12/03 07:43:17;;;;;;;1.30;1.30;;;;;;;0.92;85.16;98691.75;4915775;29;20028;-64
2021/12/03 07:45:45;;;;;;;1.42;1.33;;;;;;;0.92;86.53;98693.41;4915398;29;20027;-64
2021/12/03 07:48:10;;;;;;;2.58;2.08;;;;;;;0.87;86.47;98695.91;4915613;29;20060;-66
2021/12/03 07:50:38;;;;;;;1.00;1.00;;;;;;;0.76;90.22;98697.38;4915738;29;20066;-66
2021/12/03 07:53:04;;;;;;;1.45;1.35;;;;;;;0.91;92.98;98696.78;4915749;29;20075;-66
2021/12/03 07:55:29;;;;;;;3.63;2.55;;;;;;;0.87;87.54;98695.00;4915593;29;20409;-66
2021/12/03 07:57:55;;;;;;;2.17;2.08;;;;;;;1.18;86.72;98692.22;4915502;29;20036;-66
2021/12/03 08:00:22;;;;;;;1.13;1.13;;;;;;;1.49;88.35;98700.38;4915515;29;20445;-67
2021/12/03 08:02:47;;;;;;;2.28;1.75;;;;;;;1.83;80.03;98698.38;4915595;29;20043;-67
2021/12/03 08:05:13;;;;;;;0.95;0.95;;;;;;;2.57;79.79;98686.66;4915640;29;20028;-67
2021/12/03 08:07:39;;;;;;;0.95;0.95;;;;;;;2.19;79.40;98698.94;4906891;29;20036;-67
2021/12/03 08:10:05;;;;;;;0.75;0.75;;;;;;;2.84;75.76;98696.31;4915489;29;20043;-67
2021/12/03 08:12:31;;;;;;;0.82;0.82;;;;;;;2.57;77.72;98698.59;4915468;29;20063;-67
2021/12/03 08:14:57;;;;;;;1.00;1.00;;;;;;;2.80;77.01;98698.84;4915339;29;20063;-64
2021/12/03 08:17:22;;;;;;;1.55;1.45;;;;;;;2.81;74.66;98705.69;4915223;29;20390;-64
2021/12/03 08:19:47;;;;;;;1.90;1.77;;;;;;;2.91;75.77;98709.22;4915649;29;20028;-64
2021/12/03 08:22:13;;;;;;;2.08;1.88;;;;;;;2.92;73.19;98704.09;4915736;29;20047;-64
2021/12/03 08:24:38;;;;;;;3.08;1.85;;;;;;;2.73;75.74;98713.25;4915386;29;20039;-64
2021/12/03 08:27:03;;;;;;;2.10;2.00;;;;;;;3.31;70.99;98706.22;4915521;29;20114;-64
2021/12/03 08:29:29;;;;;;;1.52;1.33;;;;;;;4.72;68.29;98702.06;4915096;29;20075;-64
2021/12/03 08:31:54;;;;;;;0.90;0.90;;;;;;;5.86;64.06;98692.84;4915410;29;20095;-64
2021/12/03 08:34:20;;;;;;;1.55;1.50;;;;;;;7.61;56.11;98680.16;4915425;29;20024;-64
2021/12/03 08:36:45;;;;;;;1.25;1.25;;;;;;;8.56;54.09;98680.13;4912974;29;20021;-64
2021/12/03 08:39:11;;;;;;;4.85;2.75;;;;;;;8.69;51.81;98681.69;4908872;29;20028;-64
2021/12/03 08:41:36;;;;;;;1.88;1.77;;;;;;;8.17;52.26;98691.66;4915226;29;20035;-64
2021/12/03 08:44:03;;;;;;;1.45;1.35;;;;;;;7.42;54.49;98690.59;4915603;29;20024;-65
2021/12/03 08:46:33;;;;;;;2.55;1.42;;;;;;;6.64;57.34;98693.56;4918314;29;20036;-64
2021/12/03 08:49:47;;;;;;;1.88;1.55;;;;;;;7.37;55.97;98692.34;4918895;29;20040;-65
2021/12/03 08:51:54;;;;;;;2.15;1.80;;;;;;;9.32;49.13;98688.59;4914475;29;20504;-64
2021/12/03 08:57:04;;;;;;;1.50;1.38;;;;;;;11.59;42.43;98675.66;4918582;29;20393;-64
2021/12/03 08:59:30;;;;;;;2.13;2.03;;;;;;;11.40;42.69;98674.38;4918469;29;20036;-64
2021/12/03 09:01:55;;;;;;;2.35;1.77;;;;;;;11.79;41.09;98682.09;4918412;29;20112;-64
2021/12/03 09:04:20;;;;;;;1.85;1.27;;;;;;;12.26;39.12;98682.69;4918550;29;20115;-65
2021/12/03 09:06:46;;;;;;;1.05;1.05;;;;;;;12.60;41.19;98693.88;4915761;29;20061;-64
2021/12/03 09:09:11;;;;;;;2.05;1.65;;;;;;;14.10;36.33;98684.09;4912112;29;20400;-65
2021/12/03 09:11:37;;;;;;;1.63;1.52;;;;;;;13.98;38.23;98679.31;4918346;29;20031;-65
2021/12/03 09:14:12;;;;;;;1.63;1.25;;;;;;;15.24;34.43;98685.28;4918383;29;20024;-65
2021/12/03 09:16:38;;;;;;;1.60;1.00;;;;;;;15.51;34.23;98684.19;4916566;29;20032;-65
2021/12/03 09:19:07;;;;;;;1.30;1.20;;;;;;;14.06;35.63;98692.91;4918213;29;20099;-65
2021/12/03 09:21:34;;;;;;;1.60;1.13;;;;;;;14.39;36.50;98690.06;4917840;29;20646;-65
2021/12/03 09:24:08;;;;;;;6.68;1.08;;;;;;;15.73;32.60;98686.84;4918149;29;20467;-65
2021/12/03 09:26:38;;;;;;;1.98;1.38;;;;;;;14.86;33.26;98690.16;4917802;29;20367;-65
2021/12/03 09:29:07;;;;;;;;;;;;;;;14.05;34.96;98696.44;4918482;29;20039;-64
2021/12/03 09:31:35;;;;;;;0.98;0.98;;;;;;;14.49;34.33;98695.84;4917906;29;19941;-65
2021/12/03 09:34:00;;;;;;;0.73;0.73;;;;;;;12.29;36.37;98698.22;4917890;29;20028;-65
2021/12/03 09:36:26;;;;;;;2.42;1.15;;;;;;;10.12;39.53;98702.88;4916872;29;20386;-64
2021/12/03 09:38:51;;;;;;;1.15;1.05;;;;;;;8.24;44.71;98719.16;4909841;29;20087;-64
2021/12/03 09:41:20;;;;;;;0.68;0.68;;;;;;;7.42;47.41;98711.22;4917971;29;20040;-64
2021/12/03 09:43:50;;;;;;;2.08;1.27;;;;;;;5.18;51.71;98733.03;4917672;29;20058;-64
2021/12/03 09:46:35;;;;;;;0.82;0.82;;;;;;;4.33;54.88;98720.69;4917438;29;20028;-64
2021/12/03 09:56:36;;;;;;;0.98;0.98;;;;;;;8.95;45.07;98694.28;4917022;29;20039;-64
2021/12/03 10:04:45;;;;;;;0.60;0.60;;;;;;;9.17;43.89;98694.00;4917194;29;20103;-65
2021/12/03 10:12:40;;;;;;;0.98;0.98;;;;;;;10.58;42.43;98671.81;4917404;29;20036;-65
2021/12/03 10:15:37;;;;;;;2.58;1.25;;;;;;;11.93;38.34;98669.66;4917113;29;20063;-64
2021/12/03 10:39:35;;;;;;;0.60;0.60;;;;;;;11.95;38.05;98657.53;4908974;29;20043;-65
2021/12/03 10:47:43;;;;;;;0.65;0.60;;;;;;;6.92;47.18;98678.88;4916334;29;20038;-65
2021/12/03 10:58:47;;;;;;;0.60;0.60;;;;;;;4.51;57.68;98679.75;4916460;29;20034;-66
2021/12/03 11:15:44;;;;;;;1.00;1.00;;;;;;;6.84;51.39;98634.25;4916340;29;20028;-66
2021/12/03 11:31:51;;;;;;;1.02;0.93;;;;;;;9.17;44.32;98595.75;4916606;29;20039;-69
2021/12/03 12:28:28;;;;;;;0.82;0.82;;;;;;;4.52;59.69;98583.97;4907540;29;20032;-64
2021/12/03 12:33:31;;;;;;;1.77;1.67;;;;;;;4.30;58.63;98582.16;4881493;29;20033;-64
2021/12/03 13:04:27;;;;;;;0.75;0.75;;;;;;;4.56;59.64;98547.19;4918802;29;20042;-66
2021/12/03 13:09:23;;;;;;;0.85;0.65;;;;;;;4.63;59.23;98537.81;4910626;29;20043;-64
2021/12/03 13:12:01;;;;;;;1.73;1.63;;;;;;;4.50;58.75;98534.38;4918402;29;20032;-64
2021/12/03 13:58:26;;;;;;;;;;;;;;;3.69;61.41;98520.38;4907743;29;20387;-66
2021/12/03 14:40:16;;;;;;;0.60;0.60;;;;;;;3.58;63.08;98487.03;4916784;29;20075;-64
2021/12/03 14:45:29;;;;;;;0.73;0.73;;;;;;;3.48;63.82;98483.56;4916624;29;20040;-64
2021/12/03 14:48:18;;;;;;;0.60;0.60;;;;;;;3.25;66.48;98487.69;4916590;29;20540;-64
2021/12/03 14:55:39;;;;;;;1.05;1.05;;;;;;;3.01;66.75;98473.03;4910888;29;20024;-64
2021/12/03 14:58:13;;;;;;;0.50;0.50;;;;;;;2.94;66.48;98472.13;4908179;29;20096;-65
2021/12/03 15:03:35;;;;;;;1.23;1.10;;;;;;;2.82;67.52;98467.78;4916402;29;20116;-64
2021/12/03 15:06:21;;;;;;;0.52;0.52;;;;;;;2.87;71.45;98472.06;4914858;29;20314;-64
2021/12/03 15:32:05;;;;;;;3.05;2.75;;;;;;;2.33;68.78;98473.31;4916004;29;20508;-66
2021/12/03 15:34:46;;;;;;;0.77;0.77;;;;;;;2.22;68.60;98476.59;4914620;29;20036;-66
2021/12/03 16:04:27;;;;;;;1.27;1.27;;;;;;;2.28;65.40;98446.00;4919748;29;20042;-66
2021/12/03 16:07:03;;;;;;;0.80;0.80;;;;;;;2.33;65.21;98440.09;4916123;29;20086;-66
2021/12/03 16:09:48;;;;;;;0.80;0.80;;;;;;;2.47;66.16;98438.50;4914641;29;20498;-66
2021/12/03 16:13:06;;;;;;;2.10;1.45;;;;;;;2.31;65.60;98430.66;4919290;29;20113;-67
2021/12/03 16:15:15;;;;;;;2.00;1.90;;;;;;;2.20;65.32;98424.63;4915530;29;20599;-66
2021/12/03 16:22:50;;;;;;;1.33;1.23;;;;;;;1.98;66.65;98448.22;4919400;29;20036;-66
2021/12/03 16:52:51;;;;;;;1.77;1.70;;;;;;;1.24;71.31;98403.97;4919048;29;20108;-68
2021/12/03 16:55:18;;;;;;;1.52;1.52;;;;;;;1.16;72.71;98405.56;4915539;29;20031;-68
2021/12/03 16:57:45;;;;;;;1.15;1.15;;;;;;;1.22;77.29;98408.19;4907551;29;20036;-68
2021/12/03 17:00:35;;;;;;;2.53;1.70;;;;;;;1.04;75.15;98402.84;4918411;29;20028;-69
2021/12/03 17:03:23;;;;;;;1.60;1.50;;;;;;;0.91;75.77;98408.59;4918557;29;20062;-68
2021/12/03 17:06:43;;;;;;;1.63;1.63;;;;;;;1.08;78.79;98417.34;4915660;29;20095;-68
2021/12/03 17:11:34;;;;;;;1.23;1.23;;;;;;;0.74;77.63;98403.28;4918281;29;20394;-68
2021/12/03 17:17:09;;;;;;;3.83;3.53;;;;;;;0.80;76.38;98400.81;4917835;29;20039;-69
2021/12/03 17:30:17;;;;;;;0.93;0.90;;;;;;;1.03;76.07;98380.72;4915463;29;20039;-68
2021/12/03 17:57:09;;;;;;;1.40;1.35;;;;;;;1.01;72.20;98346.69;4908918;29;20490;-66
2021/12/03 17:59:46;;;;;;;0.82;0.82;;;;;;;1.46;70.85;98345.53;4912936;29;20613;-66
2021/12/03 18:02:19;;;;;;;1.60;1.52;;;;;;;1.44;70.97;98336.97;4917450;29;20397;-65
2021/12/03 18:05:01;;;;;;;1.67;1.23;;;;;;;1.41;69.78;98339.53;4917621;29;20024;-66
2021/12/03 18:15:30;;;;;;;0.95;0.95;;;;;;;1.88;67.67;98308.47;4917032;29;20032;-66
2021/12/03 18:52:50;;;;;;;2.58;2.38;;;;;;;0.93;77.37;98276.88;4916321;29;20442;-66
2021/12/03 18:55:31;;;;;;;1.15;1.13;;;;;;;0.83;78.43;98265.72;4913793;29;20108;-67
2021/12/03 18:58:01;;;;;;;1.67;1.50;;;;;;;0.75;79.45;98270.72;4906791;29;20496;-67
2021/12/03 19:00:29;;;;;;;3.25;2.13;;;;;;;0.73;81.18;98259.66;4916452;29;20058;-67
2021/12/03 19:02:57;;;;;;;1.55;1.45;;;;;;;0.61;79.53;98259.47;4916525;29;20393;-67
2021/12/03 19:10:28;;;;;;;2.60;2.08;;;;;;;0.55;79.88;98261.09;4916027;29;20032;-69
2021/12/03 19:12:58;;;;;;;2.92;1.50;;;;;;;0.41;81.06;98260.91;4916114;29;20107;-69
2021/12/03 19:15:25;;;;;;;2.30;2.08;;;;;;;0.49;80.51;98264.44;4915844;29;20028;-69
2021/12/03 19:17:50;;;;;;;1.02;1.02;;;;;;;0.50;80.31;98261.03;4915910;29;20070;-69
2021/12/03 19:20:21;;;;;;;1.23;1.23;;;;;;;0.44;80.39;98245.66;4915936;29;20194;-69
2021/12/03 19:22:48;;;;;;;4.05;2.60;;;;;;;0.41;80.34;98232.88;4916020;29;20046;-67
2021/12/03 19:25:14;;;;;;;2.53;2.25;;;;;;;0.43;81.42;98223.53;4913105;29;20028;-66
2021/12/03 19:27:39;;;;;;;5.07;3.20;;;;;;;0.56;81.34;98224.56;4904017;29;20021;-67
2021/12/03 19:30:06;;;;;;;1.75;1.65;;;;;;;0.55;79.77;98213.53;4915025;29;20844;-66
2021/12/03 19:32:31;;;;;;;2.25;2.15;;;;;;;0.49;79.10;98208.34;4915804;29;20389;-66
2021/12/03 19:34:58;;;;;;;2.17;2.08;;;;;;;0.43;79.59;98200.63;4916038;29;20028;-66
2021/12/03 19:37:27;;;;;;;2.28;1.98;;;;;;;0.43;80.15;98190.41;4908554;29;20394;-66
2021/12/03 19:39:52;;;;;;;2.42;2.17;;;;;;;0.38;80.76;98184.41;4913671;29;20032;-66
2021/12/03 19:42:25;;;;;;;7.30;3.05;;;;;;;0.50;80.14;98189.69;4915778;29;20089;-66
2021/12/03 19:44:56;;;;;;;2.50;2.10;;;;;;;0.40;80.73;98183.59;4914604;29;20028;-67
2021/12/03 19:47:32;;;;;;;1.58;1.48;;;;;;;0.49;80.46;98168.44;4915657;29;20048;-66
2021/12/03 19:52:31;;;;;;;10.15;3.97;;;;;;;0.45;81.72;98170.94;4915771;29;20043;-66
2021/12/03 19:54:56;;;;;;;2.72;2.53;;;;;;;0.50;81.76;98174.38;4915399;29;20028;-66
2021/12/03 19:57:23;;;;;;;2.30;1.85;;;;;;;0.49;81.76;98177.78;4904371;29;20032;-66
2021/12/03 19:59:49;;;;;;;2.08;1.88;;;;;;;0.59;81.64;98179.59;4913006;29;20391;-66
2021/12/03 20:02:15;;;;;;;2.63;2.13;;;;;;;0.39;81.08;98175.97;4915627;29;20035;-67
2021/12/03 20:04:41;;;;;;;1.38;1.35;;;;;;;0.44;81.34;98164.13;4915629;29;20036;-66
2021/12/03 20:07:06;;;;;;;1.50;1.40;;;;;;;0.38;81.46;98148.75;4910452;29;20025;-66
2021/12/03 20:09:41;;;;;;;1.60;1.50;;;;;;;0.31;81.43;98136.78;4910565;29;20477;-66
2021/12/03 20:12:12;;;;;;;2.63;2.42;;;;;;;0.20;82.27;98134.09;4915780;29;20405;-66
2021/12/03 20:14:40;;;;;;;1.35;1.35;;;;;;;0.24;84.57;98134.16;4915641;29;20107;-66
2021/12/03 20:17:12;;;;;;;2.25;1.90;;;;;;;0.28;83.43;98132.50;4915299;29;20485;-67
2021/12/03 20:19:39;;;;;;;2.55;2.38;;;;;;;0.32;83.01;98128.28;4915540;29;20028;-67
2021/12/03 20:22:19;;;;;;;2.72;2.53;;;;;;;0.59;83.99;98131.16;4915440;29;20123;-67
2021/12/03 20:27:13;;;;;;;0.98;0.98;;;;;;;0.57;81.57;98140.47;4905538;29;20378;-66
2021/12/03 20:35:09;;;;;;;3.78;2.95;;;;;;;0.54;81.13;98112.44;4915403;29;20036;-66
2021/12/03 20:37:42;;;;;;;8.30;2.75;;;;;;;0.60;81.17;98104.84;4906612;29;20108;-66
2021/12/03 20:40:15;;;;;;;6.40;2.22;;;;;;;0.63;81.21;98094.69;4917168;29;20030;-66
2021/12/03 20:52:52;;;;;;;4.65;3.67;;;;;;;0.72;80.78;98084.56;4918777;29;20028;-69
2021/12/03 21:10:33;;;;;;;3.63;1.90;;;;;;;0.87;80.18;98065.13;4918515;29;20028;-69
2021/12/03 21:13:08;;;;;;;1.80;1.67;;;;;;;0.89;80.48;98060.94;4918498;29;20034;-69
2021/12/03 21:21:19;;;;;;;1.13;1.13;;;;;;;0.68;80.63;98047.16;4918348;29;20063;-69
2021/12/03 21:23:44;;;;;;;1.52;1.52;;;;;;;0.57;81.15;98043.63;4918076;29;20408;-70
2021/12/03 21:26:14;;;;;;;4.70;2.10;;;;;;;0.59;81.44;98036.00;4910983;29;20036;-69
2021/12/03 21:32:16;;;;;;;2.22;2.05;;;;;;;0.54;81.80;98028.31;4918266;29;20593;-67
2021/12/03 21:40:08;;;;;;;2.30;2.20;;;;;;;0.66;81.51;98032.66;4915816;29;20163;-67
2021/12/03 21:42:34;;;;;;;2.30;2.20;;;;;;;0.79;80.18;98038.75;4917858;29;20032;-67
2021/12/03 21:45:00;;;;;;;1.75;1.20;;;;;;;0.83;79.27;98025.19;4917830;29;20032;-67
2021/12/03 21:47:25;;;;;;;1.65;1.55;;;;;;;0.93;79.30;98032.06;4917275;29;20028;-70
2021/12/03 21:49:50;;;;;;;2.78;1.42;;;;;;;0.85;78.86;98028.59;4916431;29;20031;-70
2021/12/03 21:52:16;;;;;;;1.23;1.23;;;;;;;0.84;78.72;98022.63;4917108;29;20132;-69
2021/12/03 21:54:41;;;;;;;2.30;2.13;;;;;;;0.81;79.37;98020.03;4917638;29;20107;-69
2021/12/03 21:57:06;;;;;;;1.70;1.70;;;;;;;0.81;79.37;98012.41;4907900;29;20455;-70
2021/12/03 21:59:32;;;;;;;1.80;1.70;;;;;;;0.85;79.75;98009.03;4912611;29;20115;-70
2021/12/03 22:01:59;;;;;;;1.63;1.52;;;;;;;0.83;79.13;98009.88;4917346;29;20024;-69
2021/12/03 22:04:24;;;;;;;1.10;1.10;;;;;;;0.96;80.73;98017.63;4917678;29;20129;-70
2021/12/03 22:06:50;;;;;;;3.00;2.38;;;;;;;0.94;79.60;98010.81;4914218;29;20020;-69
2021/12/03 22:09:17;;;;;;;2.15;1.95;;;;;;;0.85;81.17;97998.00;4910307;29;20040;-69
2021/12/03 22:11:43;;;;;;;5.18;2.00;;;;;;;0.77;80.99;97995.38;4917379;29;20028;-69
2021/12/03 22:14:09;;;;;;;1.02;1.02;;;;;;;0.75;81.38;97990.25;4917277;29;20412;-69
2021/12/03 22:16:34;;;;;;;1.10;1.10;;;;;;;0.84;81.62;97975.88;4916971;29;20445;-68
2021/12/03 22:18:59;;;;;;;1.13;1.13;;;;;;;1.10;80.93;97969.25;4917010;29;20401;-68
2021/12/03 22:21:25;;;;;;;1.20;1.20;;;;;;;1.13;77.81;97966.75;4917286;29;20101;-68
2021/12/03 22:23:50;;;;;;;0.90;0.90;;;;;;;1.49;78.21;97948.19;4916938;29;20478;-68
2021/12/03 22:26:17;;;;;;;1.40;1.30;;;;;;;1.40;78.45;97937.09;4910114;29;20029;-68
2021/12/03 22:28:42;;;;;;;1.67;1.58;;;;;;;1.43;79.58;97937.13;4909391;29;20118;-69
2021/12/03 22:31:09;;;;;;;1.58;1.52;;;;;;;1.20;80.90;97932.75;4897943;29;20402;-69
2021/12/03 22:33:36;;;;;;;1.35;1.25;;;;;;;1.10;81.84;97923.34;4897819;29;20024;-69
2021/12/03 22:36:02;;;;;;;1.75;1.65;;;;;;;1.04;82.38;97918.22;4899807;29;20029;-69
2021/12/03 22:38:27;;;;;;;5.47;2.40;;;;;;;1.05;82.32;97924.16;4908799;29;20397;-70
2021/12/03 22:40:53;;;;;;;0.90;0.90;;;;;;;1.04;83.88;97923.31;4916735;29;20031;-69
2021/12/03 22:43:18;;;;;;;1.25;1.25;;;;;;;0.90;85.07;97925.78;4916718;29;20121;-69
2021/12/03 22:46:40;;;;;;;1.02;1.02;;;;;;;0.94;83.98;97922.41;4916319;29;20036;-69
2021/12/03 22:53:34;;;;;;;1.17;1.17;;;;;;;0.61;85.68;97905.19;4916771;29;20038;-69
2021/12/03 22:56:00;;;;;;;0.85;0.85;;;;;;;0.61;86.16;97900.09;4909619;29;20025;-69
2021/12/03 22:58:25;;;;;;;3.30;1.48;;;;;;;0.75;85.78;97901.03;4908492;29;20083;-69
2021/12/03 23:01:04;;;;;;;1.90;1.80;;;;;;;0.75;86.68;97890.84;4916321;29;20028;-69
2021/12/03 23:03:31;;;;;;;1.90;1.80;;;;;;;0.68;87.19;97894.19;4915729;29;20036;-69
2021/12/03 23:05:58;;;;;;;0.93;0.93;;;;;;;0.66;86.11;97893.31;4914042;29;20084;-69
2021/12/03 23:08:24;;;;;;;0.90;0.90;;;;;;;0.76;87.08;97872.13;4908363;29;20028;-69
2021/12/03 23:10:51;;;;;;;2.25;1.85;;;;;;;0.70;86.70;97868.72;4916175;29;20079;-68
2021/12/03 23:13:17;;;;;;;0.73;0.73;;;;;;;0.70;87.08;97861.91;4916295;29;20036;-68
2021/12/03 23:15:43;;;;;;;3.13;2.03;;;;;;;0.72;87.32;97850.03;4915886;29;20032;-68
2021/12/03 23:18:10;;;;;;;2.40;1.50;;;;;;;0.72;87.94;97850.03;4916162;29;20114;-68
2021/12/03 23:20:37;;;;;;;2.47;2.38;;;;;;;0.66;87.84;97832.16;4916182;29;20028;-68
2021/12/03 23:23:03;;;;;;;3.03;1.48;;;;;;;0.85;88.60;97825.44;4916055;29;20111;-68
2021/12/03 23:25:29;;;;;;;1.17;0.80;;;;;;;0.72;87.49;97814.34;4911374;29;20069;-68
2021/12/03 23:27:54;;;;;;;2.15;1.98;;;;;;;0.71;87.60;97812.63;4905904;29;20028;-68
2021/12/03 23:30:20;;;;;;;1.17;1.17;;;;;;;0.90;87.96;97807.63;4914689;29;20028;-68
2021/12/03 23:32:45;;;;;;;1.75;1.65;;;;;;;0.74;86.88;97805.00;4916417;29;20099;-68
2021/12/03 23:35:10;;;;;;;0.77;0.77;;;;;;;0.74;86.90;97812.66;4915836;29;20562;-68
2021/12/03 23:37:36;;;;;;;0.70;0.70;;;;;;;0.73;86.77;97799.91;4906964;29;20096;-68
2021/12/03 23:40:06;;;;;;;1.15;1.15;;;;;;;0.68;86.80;97787.16;4914694;29;20031;-68
2021/12/03 23:42:31;;;;;;;0.88;0.88;;;;;;;0.72;87.56;97788.84;4915794;29;20064;-68
2021/12/03 23:44:57;;;;;;;0.70;0.70;;;;;;;0.72;87.82;97780.34;4915907;29;20032;-65
2021/12/03 23:47:22;;;;;;;2.35;1.80;;;;;;;0.79;87.73;97773.59;4915279;29;20029;-66
2021/12/03 23:49:48;;;;;;;2.35;2.25;;;;;;;0.76;87.52;97765.06;4915839;29;20035;-66
2021/12/03 23:52:14;;;;;;;2.65;2.45;;;;;;;0.77;87.12;97766.81;4915758;29;20028;-66
2021/12/03 23:54:39;;;;;;;2.38;1.42;;;;;;;0.82;86.89;97758.28;4915719;29;20035;-66
2021/12/03 23:57:07;;;;;;;1.17;1.17;;;;;;;0.81;86.99;97754.03;4915765;29;20020;-66
2021/12/03 23:59:34;;;;;;;3.60;1.48;;;;;;;0.83;87.10;97745.56;4916034;29;20032;-66
